Aviation Digital Data Service (ADDS)

Output produced by METARs form (2049 UTC 21 September 2021)
found at http://www.aviationweather.gov/metar/data/
 
TAF SKBQ 211630Z 2118/2218 02005KT 9999 SCT015 
     TEMPO 2119/2121 RA SCT010CB SCT070 
     PROB40 
     TEMPO 2210/2212 5000 DZ BR BKN010 TX32/2216Z TN26/2210Z